메인 페이지
METAR-TAF:

METAR-TAF

공항 :

샌프란시스코 국제공항

샌프란시스코, 캘리포니아, 미국

위도: 37-37-11N, 경도: 122-21-53W, 고도: 3m

현재 날씨관측

예보는 9분 전, 05:56시(UTC)에 발표되었습니다.
서북서14kt
온도 14°C
습도 88%
기압 1015 hPa
시정: 16.1km
고도 600ft 상공 구름 조금

METAR: KSFO 170556Z 29014KT 10SM FEW006 14/12 A2998 RMK AO2 SLP151 T01390117 10189 20139 51011

시각: 23:05 (06:05 UTC)

예보

예보는 25분 전, 05:40시(UTC)에 발표되었습니다.
예보 대상 시간: 17일 06시부터 18일 12시까지 (UTC)
서북서12kt
시정: 10km
고도 1000ft 상공 구름 조금
17일 0800시부터 (UTC)
서북서7kt
시정: 10km
고도 800ft 상공 구름 보통
17일 1000시부터 (UTC)
서북서5kt
시정: 10km
고도 800ft 상공 구름 많음
17일 1700시부터 (UTC)
북서5kt
시정: 10km
고도 1200ft 상공 구름 보통
17일 2100시부터 (UTC)
북서13kt
시정: 10km
맑음
18일 0400시부터 (UTC)
서북서8kt
시정: 10km
고도 1000ft 상공 구름 조금
18일 1000시부터 (UTC)
6kt
시정: 10km
고도 1200ft 상공 구름 보통

TAF: KSFO 170540Z 1706/1812 29012KT P6SM FEW010 FM170800 29007KT P6SM SCT008 FM171000 29005KT P6SM BKN008 FM171700 32005KT P6SM SCT012 FM172100 31013KT P6SM SKC FM180400 30008KT P6SM FEW010 FM181000 28006KT P6SM SCT012

4,000개 이상의 공항 관측 자료 및 예보 (METAR 및 TAF 보고).

지도상에서 검색 가능한 기상관측소가 노란 점과 빨간 점으로 표시되어 있습니다.

기상관측소 명을 보려면 표시 위로 마우스를 이동하세요.

날씨 관측과 예보를 보려면 클릭하세요.

지도 변경 : 확대하려면 엑스 표시가 있는 녹색 버튼, 축소하려면 빼기 표시가 있는 녹색 버튼, 다음 페이지의 지도를 보려면 녹색 화살표를 클릭하세요.


METAR-TAF: